Leburn, Kentucky
Current Conditions -  °F | °C
As of 10:53 PM on Saturday 22 Nov 2014 (Local Time) from KJKL Reporting Station
Clear Clear  
Wind Chill: 50°   Ceiling: Unl
Heat Index: 50°   Visibility: 10mi
Dew Point: 28°   Wind: 5mph
Humidity: 43%   Direction: NA
Pressure: 30.14"   Gusts: NA
Location:  37.35°N, 82.96°W
Report Text: KJKL 230353Z AUTO VRB04KT 10SM CLR 10/M02 A3014 RMK AO2 SLP206 T01001022
Loading
Personal Weather Stations






























Interactive Weather Map New forecast layout! Learn more

10-Day Weather Forecast

Advertisements
Track Severe Weather on mobile